Flight Track Log - Related Links

Times and Time Zones

All times are in EDT time to prevent confusion due to time zone crossing. See the ASA125 flight status page for this flight to view local times or setup timezone preferences in your user account.

Time Position Orientation Groundspeed Altitude Reporting Facility
EDT Latitude Longitude Course Direction KTS MPH feet Rate Location/Type
Sun 02:25:06 AM 47.4681 -122.3086 359° North 164 189 1,400  Level Seattle Center
Sun 02:25:37 AM 47.4967 -122.3092 359° North 180 207 2,100 1,571 Climbing Seattle Center
Sun 02:25:48 AM 47.5131 -122.3100 358° North 201 231 2,500 2,600 Climbing Seattle Center
Sun 02:26:37 AM 47.5611 -122.3153 356° North 230 265 4,700 2,891 Climbing Seattle Center
Sun 02:27:38 AM 47.6081 -122.3792 317° Northwest 241 277 7,800 2,678 Climbing Seattle Center
Sun 02:28:38 AM 47.6461 -122.4539 307° West 248 285 10,100 1,750 Climbing Seattle Center
Sun 02:29:38 AM 47.7289 -122.4542 360° North 300 345 11,300 1,438 Climbing Seattle Center
Sun 02:30:39 AM 47.8253 -122.4550 360° North 355 409 13,000 1,983 Climbing Seattle Center
Sun 02:31:39 AM 47.8914 -122.5656 312° West 376 433 15,300 2,350 Climbing Seattle Center
Sun 02:32:39 AM 47.9383 -122.7069 296° West 386 444 17,700 2,150 Climbing Seattle Center
Sun 02:33:39 AM 47.9856 -122.8475 297° West 382 440 19,600 1,785 Climbing Seattle Center
Sun 02:34:40 AM 48.0361 -122.9947 297° West 395 455 21,300 1,736 Climbing Seattle Center
Sun 02:35:40 AM 48.0875 -123.1444 297° West 403 464 23,100 1,700 Climbing Seattle Center
Sun 02:36:40 AM 48.1536 -123.3064 302° West 419 482 24,700 1,484 Climbing Seattle Center
Sun 02:37:13 AM 48.1833 -123.3500 316° Northwest 410 472 25,400 1,290 Climbing Vancouver Center
Sun 02:38:13 AM 48.2833 -123.4667 322° Northwest 420 483 26,700 1,250 Climbing Vancouver Center
Sun 02:39:13 AM 48.3667 -123.6000 313° West 430 495 27,900 1,300 Climbing Vancouver Center
Sun 02:40:13 AM 48.4500 -123.7000 321° Northwest 430 495 29,300 1,450 Climbing Vancouver Center
Sun 02:41:13 AM 48.5500 -123.8167 322° Northwest 420 483 30,800 1,400 Climbing Vancouver Center
Sun 02:42:13 AM 48.6333 -123.9333 317° Northwest 420 483 32,100 1,250 Climbing Vancouver Center
Sun 02:43:13 AM 48.7333 -124.0333 327° Northwest 410 472 33,300 950 Climbing Vancouver Center
Sun 02:44:13 AM 48.8167 -124.1500 317° Northwest 410 472 34,000 350 Climbing Vancouver Center
Sun 02:45:13 AM 48.9000 -124.2500 322° Northwest 410 472 34,000  Level Vancouver Center
Sun 02:46:13 AM 49.0000 -124.3667 323° Northwest 400 460 34,000  Level Vancouver Center
Sun 02:47:13 AM 49.0833 -124.4667 322° Northwest 400 460 34,000  Level Vancouver Center
Sun 02:48:13 AM 49.1667 -124.5667 322° Northwest 400 460 34,000  Level Vancouver Center
Sun 02:49:13 AM 49.2500 -124.7000 314° West 400 460 34,000  Level Vancouver Center
Sun 02:50:13 AM 49.3333 -124.8000 322° Northwest 400 460 34,000  Level Vancouver Center
Sun 02:51:13 AM 49.4333 -124.9000 327° Northwest 400 460 34,000  Level Vancouver Center
Sun 02:52:13 AM 49.5167 -125.0000 322° Northwest 400 460 34,000  Level Vancouver Center
Sun 02:53:13 AM 49.6000 -125.1333 314° West 400 460 34,000  Level Vancouver Center
Sun 02:54:13 AM 49.6833 -125.2500 318° Northwest 400 460 34,000  Level Vancouver Center
Sun 02:55:13 AM 49.7667 -125.3500 322° Northwest 410 472 34,000  Level Vancouver Center
Sun 02:56:13 AM 49.8667 -125.4833 319° Northwest 400 460 34,000  Level Vancouver Center
Sun 02:57:13 AM 49.9500 -125.5833 322° Northwest 410 472 34,000  Level Vancouver Center
Sun 02:58:13 AM 50.0167 -125.7000 312° West 410 472 34,000  Level Vancouver Center
Sun 02:59:13 AM 50.1000 -125.8000 322° Northwest 410 472 34,000  Level Vancouver Center
Sun 03:00:13 AM 50.2000 -125.9333 320° Northwest 410 472 34,000  Level Vancouver Center
Sun 03:01:13 AM 50.2833 -126.0500 318° Northwest 410 472 34,000  Level Vancouver Center
Sun 03:02:13 AM 50.3833 -126.1500 327° Northwest 410 472 34,000  Level Vancouver Center
Sun 03:03:13 AM 50.4667 -126.2833 315° West 410 472 34,000  Level Vancouver Center
Sun 03:04:13 AM 50.5500 -126.4000 318° Northwest 410 472 34,000  Level Vancouver Center
Sun 03:05:13 AM 50.6333 -126.5167 318° Northwest 410 472 34,000  Level Vancouver Center
Sun 03:06:13 AM 50.7167 -126.6167 323° Northwest 410 472 34,000  Level Vancouver Center
Sun 03:07:13 AM 50.8000 -126.7500 315° West 410 472 34,000  Level Vancouver Center
Sun 03:08:13 AM 50.8833 -126.8667 319° Northwest 410 472 34,000  Level Vancouver Center
Sun 03:09:13 AM 50.9833 -127.0000 320° Northwest 410 472 34,000  Level Vancouver Center
Sun 03:10:13 AM 51.0667 -127.1167 319° Northwest 410 472 34,000  Level Vancouver Center
Sun 03:11:13 AM 51.1500 -127.2333 319° Northwest 410 472 34,000  Level Vancouver Center
Sun 03:12:13 AM 51.2167 -127.3500 312° West 410 472 34,000  Level Vancouver Center
Sun 03:13:13 AM 51.3167 -127.4833 320° Northwest 410 472 34,000  Level Vancouver Center
Sun 03:14:13 AM 51.4000 -127.6000 319° Northwest 410 472 34,000  Level Vancouver Center
Sun 03:15:13 AM 51.5000 -127.7333 320° Northwest 410 472 34,000  Level Vancouver Center
Sun 03:16:13 AM 51.5667 -127.8500 313° West 410 472 34,000  Level Vancouver Center
Sun 03:17:13 AM 51.6500 -127.9667 319° Northwest 410 472 34,000  Level Vancouver Center
Sun 03:18:13 AM 51.7333 -128.0833 319° Northwest 410 472 34,000  Level Vancouver Center
Sun 03:19:13 AM 51.8333 -128.2333 317° Northwest 410 472 34,000  Level Vancouver Center
Sun 03:20:13 AM 51.9000 -128.3500 313° West 420 483 34,000  Level Vancouver Center
Sun 03:21:13 AM 51.9833 -128.4667 319° Northwest 420 483 34,000  Level Vancouver Center
Sun 03:22:13 AM 52.0833 -128.6167 317° Northwest 420 483 34,000  Level Vancouver Center
Sun 03:23:13 AM 52.1667 -128.7333 319° Northwest 420 483 34,000  Level Vancouver Center
Sun 03:24:13 AM 52.2500 -128.8667 316° Northwest 420 483 34,000  Level Vancouver Center
Sun 03:25:13 AM 52.3333 -128.9833 319° Northwest 420 483 34,000  Level Vancouver Center
Sun 03:26:13 AM 52.4333 -129.1333 318° Northwest 420 483 34,000  Level Vancouver Center
Sun 03:27:13 AM 52.5000 -129.2667 309° West 420 483 34,000  Level Vancouver Center
Sun 03:28:13 AM 52.6000 -129.4000 321° Northwest 420 483 34,000  Level Vancouver Center
Sun 03:29:13 AM 52.6833 -129.5333 316° Northwest 420 483 34,000  Level Vancouver Center
Sun 03:30:13 AM 52.7667 -129.6500 320° Northwest 420 483 34,000  Level Vancouver Center
Sun 03:31:13 AM 52.8500 -129.8000 313° West 420 483 34,000  Level Vancouver Center
Sun 03:32:13 AM 52.9333 -129.9167 320° Northwest 420 483 34,000  Level Vancouver Center
Sun 03:33:13 AM 53.0167 -130.0667 313° West 420 483 34,000  Level Vancouver Center
Sun 03:34:13 AM 53.1167 -130.2000 321° Northwest 420 483 34,000  Level Vancouver Center
Sun 03:35:13 AM 53.1833 -130.3167 314° West 420 483 34,000  Level Vancouver Center
Sun 03:36:13 AM 53.2667 -130.4667 313° West 420 483 34,000  Level Vancouver Center
Sun 03:37:13 AM 53.3500 -130.6000 316° Northwest 420 483 34,000  Level Vancouver Center
Sun 03:38:13 AM 53.4333 -130.7500 313° West 420 483 34,000  Level Vancouver Center
Sun 03:39:13 AM 53.5167 -130.8833 316° Northwest 430 495 34,000  Level Vancouver Center
Sun 03:40:13 AM 53.6000 -131.0333 313° West 430 495 34,000  Level Vancouver Center
Sun 03:41:13 AM 53.6833 -131.1667 317° Northwest 430 495 34,000  Level Vancouver Center
Sun 03:42:13 AM 53.7667 -131.3167 313° West 430 495 34,000  Level Vancouver Center
Sun 03:43:13 AM 53.8667 -131.4500 322° Northwest 430 495 34,000  Level Vancouver Center
Sun 03:44:13 AM 53.9333 -131.6000 307° West 430 495 34,000  Level Vancouver Center
Sun 03:45:13 AM 54.0167 -131.7333 317° Northwest 430 495 34,000  Level Vancouver Center
Sun 03:46:13 AM 54.1000 -131.8833 313° West 430 495 34,000  Level Vancouver Center
Sun 03:47:13 AM 54.1833 -132.0167 317° Northwest 430 495 34,000  Level Vancouver Center
Sun 03:48:13 AM 54.2833 -132.1833 316° Northwest 430 495 34,000  Level Vancouver Center
Sun 03:49:13 AM 54.3667 -132.3167 317° Northwest 440 506 34,000  Level Vancouver Center
Sun 03:50:13 AM 54.4500 -132.4833 311° West 440 506 34,000  Level Vancouver Center
Sun 03:51:13 AM 54.5333 -132.6167 317° Northwest 440 506 34,000  Level Vancouver Center
Sun 03:52:13 AM 54.6167 -132.7667 314° West 440 506 34,000  Level Vancouver Center
Sun 03:53:13 AM 54.7000 -132.9333 311° West 450 518 34,000  Level Vancouver Center
Sun 03:54:13 AM 54.7833 -133.0667 317° Northwest 450 518 34,000  Level Vancouver Center
Sun 03:55:13 AM 54.8667 -133.2333 311° West 440 506 34,000  Level Vancouver Center
Sun 03:56:13 AM 54.9667 -133.4000 316° Northwest 440 506 34,000  Level Vancouver Center
Sun 03:57:13 AM 55.0500 -133.5333 318° Northwest 440 506 34,000  Level Vancouver Center
Sun 03:58:13 AM 55.1333 -133.7167 309° West 450 518 34,000  Level Vancouver Center
Sun 03:59:13 AM 55.2167 -133.8500 318° Northwest 450 518 34,000  Level Vancouver Center
Sun 04:00:13 AM 55.3000 -134.0167 311° West 450 518 34,000  Level Vancouver Center
Sun 04:01:13 AM 55.3833 -134.1833 311° West 450 518 34,000  Level Vancouver Center
Sun 04:02:13 AM 55.4833 -134.3333 320° Northwest 450 518 34,000  Level Vancouver Center
Sun 04:03:13 AM 55.5667 -134.5000 312° West 460 529 34,000  Level Vancouver Center
Sun 04:04:13 AM 55.6500 -134.6667 312° West 460 529 34,000  Level Vancouver Center
Sun 04:05:13 AM 55.7333 -134.8167 315° West 460 529 34,000  Level Vancouver Center
Sun 04:06:13 AM 55.8000 -134.9833 305° West 460 529 34,000  Level Vancouver Center
Sun 04:07:13 AM 55.9000 -135.1667 314° West 470 541 34,000  Level Vancouver Center
Sun 04:08:13 AM 55.9833 -135.3333 312° West 470 541 34,000  Level Vancouver Center
Sun 04:09:13 AM 56.0667 -135.5333 307° West 470 541 34,000  Level Vancouver Center
Sun 04:10:13 AM 56.1500 -135.6500 322° Northwest 470 541 34,000  Level Vancouver Center
Sun 04:11:13 AM 56.2500 -135.8333 315° West 470 541 34,000  Level Vancouver Center
Sun 04:12:13 AM 56.3333 -136.0167 309° West 470 541 34,000  Level Vancouver Center
Sun 04:13:13 AM 56.4167 -136.1833 312° West 470 541 34,000  Level Vancouver Center
Sun 04:14:13 AM 56.5000 -136.3667 310° West 470 541 34,000  Level Vancouver Center
Sun 04:15:13 AM 56.6000 -136.5500 315° West 470 541 34,000  Level Vancouver Center
Sun 04:16:13 AM 56.6833 -136.7333 310° West 480 552 34,000  Level Vancouver Center
Sun 04:17:13 AM 56.7667 -136.9167 310° West 480 552 34,000  Level Vancouver Center
Sun 04:18:13 AM 56.8500 -137.1000 310° West 480 552 34,000  Level Vancouver Center
Sun 04:19:13 AM 56.9500 -137.2833 315° West 480 552 34,000  Level Vancouver Center
Sun 04:20:13 AM 57.0333 -137.4667 310° West 480 552 34,000  Level Vancouver Center
Sun 04:21:13 AM 57.1167 -137.6667 308° West 480 552 34,000  Level Vancouver Center
Sun 04:22:13 AM 57.1833 -137.8500 304° West 480 552 34,000  Level Vancouver Center
Sun 04:23:13 AM 57.2833 -138.0333 315° West 480 552 34,000  Level Vancouver Center
Sun 04:24:13 AM 57.3667 -138.2167 310° West 480 552 34,000  Level Vancouver Center
Sun 04:25:13 AM 57.4500 -138.4167 308° West 480 552 34,000  Level Vancouver Center
Sun 04:26:13 AM 57.5167 -138.6333 300° West 480 552 34,000  Level Vancouver Center
Sun 04:26:43 AM 57.5667 -138.6333 360° North 470 541 34,000  Level Anchorage Center
Sun 04:27:43 AM 57.6667 -138.8167 316° Northwest 480 552 34,000  Level Anchorage Center
Sun 04:28:44 AM 57.7500 -139.0167 308° West 480 552 34,000  Level Anchorage Center
Sun 04:29:44 AM 57.8333 -139.2000 311° West 480 552 34,000  Level Anchorage Center
Sun 04:30:44 AM 57.9167 -139.4167 306° West 480 552 34,000  Level Anchorage Center
Sun 04:31:45 AM 58.0000 -139.6167 308° West 460 529 34,000  Level Anchorage Center
Sun 04:32:45 AM 58.0833 -139.8167 308° West 480 552 34,000  Level Anchorage Center
Sun 04:33:45 AM 58.1667 -140.0167 308° West 480 552 34,000  Level Anchorage Center
Sun 04:34:46 AM 58.2500 -140.2167 308° West 470 541 34,000  Level Anchorage Center
Sun 04:35:46 AM 58.3333 -140.4167 308° West 480 552 34,000  Level Anchorage Center
Sun 04:36:46 AM 58.4167 -140.6167 309° West 480 552 34,000  Level Anchorage Center
Sun 04:37:46 AM 58.5000 -140.8167 309° West 490 564 34,000  Level Anchorage Center
Sun 04:38:47 AM 58.5833 -141.0167 309° West 480 552 34,000  Level Anchorage Center
Sun 04:39:47 AM 58.6500 -141.2000 305° West 480 552 34,000  Level Anchorage Center
Sun 04:40:48 AM 58.7500 -141.4333 310° West 480 552 34,000  Level Anchorage Center
Sun 04:41:48 AM 58.8333 -141.6500 307° West 490 564 34,000  Level Anchorage Center
Sun 04:42:48 AM 58.9000 -141.8333 305° West 480 552 34,000  Level Anchorage Center
Sun 04:43:49 AM 58.9833 -142.0500 307° West 480 552 34,000  Level Anchorage Center
Sun 04:44:49 AM 59.0667 -142.2500 309° West 470 541 34,000  Level Anchorage Center
Sun 04:45:49 AM 59.1500 -142.4667 307° West 470 541 34,000  Level Anchorage Center
Sun 04:46:50 AM 59.2167 -142.6667 303° West 480 552 34,000  Level Anchorage Center
Sun 04:47:50 AM 59.3000 -142.8833 307° West 470 541 34,000  Level Anchorage Center
Sun 04:48:51 AM 59.3667 -143.1000 301° West 470 541 34,000  Level Anchorage Center
Sun 04:49:51 AM 59.4500 -143.3000 309° West 470 541 34,000  Level Anchorage Center
Sun 04:50:51 AM 59.5333 -143.5167 307° West 470 541 34,000  Level Anchorage Center
Sun 04:51:52 AM 59.6000 -143.7333 301° West 470 541 34,000  Level Anchorage Center
Sun 04:52:52 AM 59.6833 -143.9500 307° West 480 552 34,000  Level Anchorage Center
Sun 04:53:53 AM 59.7500 -144.1667 301° West 480 552 34,000  Level Anchorage Center
Sun 04:54:53 AM 59.8333 -144.4000 305° West 470 541 34,000  Level Anchorage Center
Sun 04:55:53 AM 59.9000 -144.6167 302° West 470 541 34,000  Level Anchorage Center
Sun 04:56:54 AM 60.0000 -144.8500 311° West 470 541 34,000  Level Anchorage Center
Sun 04:57:54 AM 60.0667 -145.0833 300° West 480 552 34,000  Level Anchorage Center
Sun 04:58:54 AM 60.1333 -145.3000 302° West 470 541 34,000  Level Anchorage Center
Sun 04:59:55 AM 60.2167 -145.5167 308° West 480 552 34,000  Level Anchorage Center
Sun 05:00:55 AM 60.2833 -145.7333 302° West 470 541 34,000  Level Anchorage Center
Sun 05:01:55 AM 60.3500 -145.9667 300° West 480 552 34,000  Level Anchorage Center
Sun 05:02:56 AM 60.4333 -146.1833 308° West 470 541 34,000  Level Anchorage Center
Sun 05:03:56 AM 60.5000 -146.4000 302° West 480 552 34,000  Level Anchorage Center
Sun 05:04:57 AM 60.5667 -146.6333 300° West 480 552 34,000  Level Anchorage Center
Sun 05:05:57 AM 60.6500 -146.8833 304° West 480 552 34,000  Level Anchorage Center
Sun 05:06:57 AM 60.7167 -147.1000 302° West 470 541 34,000 -1,636 Level Anchorage Center
Sun 05:07:58 AM 60.7833 -147.3333 300° West 480 552 30,700 -3,174 Descending Anchorage Center
Sun 05:08:58 AM 60.8667 -147.5667 306° West 480 552 27,600 -2,900 Descending Anchorage Center
Sun 05:09:58 AM 60.9333 -147.8000 301° West 460 529 24,900 -2,529 Descending Anchorage Center
Sun 05:10:59 AM 61.0000 -148.0167 302° West 450 518 22,500 -2,331 Descending Anchorage Center
Sun 05:11:59 AM 61.0667 -148.2500 301° West 430 495 20,200 -2,430 Descending Anchorage Center
Sun 05:13:00 AM 61.1167 -148.4500 297° West 420 483 17,600 -2,557 Descending Anchorage Center
Sun 05:14:00 AM 61.1760 -148.6609 305° West  Level FlightAware Approximate
Sun 05:21:00 AM 61.1667 -149.9833 243° Southwest  Level FlightAware Approximate
Sun 05:22:00 AM 61.1741 -149.9982 243° Southwest  Level Estimated
Sun 05:23:00 AM 61.1741 -149.9982 243° Southwest  Level Estimated
Sun 05:24:00 AM 61.1741 -149.9982 243° Southwest  Level Estimated
Sun 05:25:00 AM 61.1741 -149.9982 243° Southwest  Level Estimated
Sun 05:26:00 AM 61.1741 -149.9982 243° Southwest  Level Estimated
Sun 05:27:00 AM 61.1741 -149.9982 243° Southwest  Level Estimated
Sun 05:28:00 AM 61.1741 -149.9982 243° Southwest  Level Estimated
Sun 05:29:00 AM 61.1741 -149.9982 243° Southwest  Level Estimated
Sun 05:30:00 AM 61.1741 -149.9982 243° Southwest  Level Estimated
Sun 05:31:00 AM 61.1741 -149.9982 243° Southwest  Level Estimated
Sun 05:32:00 AM 61.1741 -149.9982 243° Southwest  Level Estimated
Sun 05:33:00 AM 61.1741 -149.9982 243° Southwest  Level Estimated
Sun 05:34:00 AM 61.1741 -149.9982 243° Southwest  Level Estimated

Login

Don't have an account? Register now (free) for customized features, flight alerts, and more!